sensor_id;sensor_type;location;lat;lon;timestamp;P1;durP1;ratioP1;P2;durP2;ratioP2
40555;SDS011;26250;45.422;11.100;2024-02-23T00:02:08;8.45;;;7.53;;
40555;SDS011;26250;45.422;11.100;2024-02-23T00:04:35;7.65;;;6.85;;
40555;SDS011;26250;45.422;11.100;2024-02-23T00:07:02;8.55;;;7.75;;
40555;SDS011;26250;45.422;11.100;2024-02-23T00:09:29;7.18;;;6.55;;
40555;SDS011;26250;45.422;11.100;2024-02-23T00:11:56;7.97;;;6.00;;
40555;SDS011;26250;45.422;11.100;2024-02-23T00:14:23;8.35;;;6.65;;
40555;SDS011;26250;45.422;11.100;2024-02-23T00:16:50;7.32;;;6.70;;
40555;SDS011;26250;45.422;11.100;2024-02-23T00:19:17;7.35;;;6.65;;
40555;SDS011;26250;45.422;11.100;2024-02-23T00:21:46;9.32;;;7.22;;
40555;SDS011;26250;45.422;11.100;2024-02-23T00:24:17;6.57;;;5.97;;
40555;SDS011;26250;45.422;11.100;2024-02-23T00:26:44;7.32;;;6.40;;
40555;SDS011;26250;45.422;11.100;2024-02-23T00:29:11;6.40;;;5.80;;
40555;SDS011;26250;45.422;11.100;2024-02-23T00:31:38;7.40;;;6.20;;
40555;SDS011;26250;45.422;11.100;2024-02-23T00:34:08;6.85;;;6.25;;
40555;SDS011;26250;45.422;11.100;2024-02-23T00:36:40;8.93;;;6.63;;
40555;SDS011;26250;45.422;11.100;2024-02-23T00:39:08;6.30;;;5.80;;
40555;SDS011;26250;45.422;11.100;2024-02-23T00:41:35;8.23;;;6.63;;
40555;SDS011;26250;45.422;11.100;2024-02-23T00:44:05;6.57;;;6.03;;
40555;SDS011;26250;45.422;11.100;2024-02-23T00:46:32;6.45;;;5.85;;
40555;SDS011;26250;45.422;11.100;2024-02-23T00:49:00;6.45;;;5.95;;
40555;SDS011;26250;45.422;11.100;2024-02-23T00:51:27;5.90;;;5.40;;
40555;SDS011;26250;45.422;11.100;2024-02-23T00:53:54;5.88;;;5.35;;
40555;SDS011;26250;45.422;11.100;2024-02-23T00:56:21;6.03;;;5.20;;
40555;SDS011;26250;45.422;11.100;2024-02-23T00:58:58;5.93;;;5.43;;
40555;SDS011;26250;45.422;11.100;2024-02-23T01:01:25;6.25;;;5.65;;
40555;SDS011;26250;45.422;11.100;2024-02-23T01:03:53;8.45;;;5.38;;
40555;SDS011;26250;45.422;11.100;2024-02-23T01:06:20;5.97;;;5.22;;
40555;SDS011;26250;45.422;11.100;2024-02-23T01:08:47;5.72;;;5.22;;
40555;SDS011;26250;45.422;11.100;2024-02-23T01:11:14;8.55;;;5.07;;
40555;SDS011;26250;45.422;11.100;2024-02-23T01:13:41;5.32;;;4.82;;
40555;SDS011;26250;45.422;11.100;2024-02-23T01:16:08;5.82;;;4.97;;
40555;SDS011;26250;45.422;11.100;2024-02-23T01:18:35;5.50;;;4.75;;
40555;SDS011;26250;45.422;11.100;2024-02-23T01:21:02;7.35;;;4.55;;
40555;SDS011;26250;45.422;11.100;2024-02-23T01:23:29;5.32;;;4.90;;
40555;SDS011;26250;45.422;11.100;2024-02-23T01:25:56;4.65;;;4.18;;
40555;SDS011;26250;45.422;11.100;2024-02-23T01:28:25;4.57;;;4.18;;
40555;SDS011;26250;45.422;11.100;2024-02-23T01:30:52;4.18;;;3.78;;
40555;SDS011;26250;45.422;11.100;2024-02-23T01:33:19;5.07;;;4.68;;
40555;SDS011;26250;45.422;11.100;2024-02-23T01:35:46;5.15;;;4.57;;
40555;SDS011;26250;45.422;11.100;2024-02-23T01:38:13;4.47;;;3.95;;
40555;SDS011;26250;45.422;11.100;2024-02-23T01:40:45;4.05;;;3.40;;
40555;SDS011;26250;45.422;11.100;2024-02-23T01:43:13;5.57;;;3.60;;
40555;SDS011;26250;45.422;11.100;2024-02-23T01:45:40;5.85;;;3.30;;
40555;SDS011;26250;45.422;11.100;2024-02-23T01:48:07;4.05;;;3.63;;
40555;SDS011;26250;45.422;11.100;2024-02-23T01:50:34;4.05;;;3.72;;
40555;SDS011;26250;45.422;11.100;2024-02-23T01:53:02;4.03;;;3.13;;
40555;SDS011;26250;45.422;11.100;2024-02-23T01:55:29;4.57;;;3.42;;
40555;SDS011;26250;45.422;11.100;2024-02-23T01:58:01;3.97;;;3.55;;
40555;SDS011;26250;45.422;11.100;2024-02-23T02:00:34;3.70;;;3.25;;
40555;SDS011;26250;45.422;11.100;2024-02-23T02:03:02;3.58;;;3.30;;
40555;SDS011;26250;45.422;11.100;2024-02-23T02:08:02;3.50;;;3.17;;
40555;SDS011;26250;45.422;11.100;2024-02-23T02:10:31;3.75;;;3.25;;
40555;SDS011;26250;45.422;11.100;2024-02-23T02:13:05;5.82;;;3.80;;
40555;SDS011;26250;45.422;11.100;2024-02-23T02:15:32;4.80;;;4.05;;
40555;SDS011;26250;45.422;11.100;2024-02-23T02:17:59;3.67;;;3.38;;
40555;SDS011;26250;45.422;11.100;2024-02-23T02:20:26;4.72;;;3.55;;
40555;SDS011;26250;45.422;11.100;2024-02-23T02:22:55;8.00;;;3.40;;
40555;SDS011;26250;45.422;11.100;2024-02-23T02:25:22;4.10;;;3.70;;
40555;SDS011;26250;45.422;11.100;2024-02-23T02:27:49;5.63;;;4.22;;
40555;SDS011;26250;45.422;11.100;2024-02-23T02:30:16;5.43;;;4.30;;
40555;SDS011;26250;45.422;11.100;2024-02-23T02:32:43;3.58;;;3.33;;
40555;SDS011;26250;45.422;11.100;2024-02-23T02:35:10;4.45;;;3.58;;
40555;SDS011;26250;45.422;11.100;2024-02-23T02:37:38;5.05;;;3.67;;
40555;SDS011;26250;45.422;11.100;2024-02-23T02:40:06;5.13;;;3.60;;
40555;SDS011;26250;45.422;11.100;2024-02-23T02:42:33;4.07;;;3.33;;
40555;SDS011;26250;45.422;11.100;2024-02-23T02:45:00;3.10;;;2.80;;
40555;SDS011;26250;45.422;11.100;2024-02-23T02:47:28;9.77;;;3.55;;
40555;SDS011;26250;45.422;11.100;2024-02-23T02:49:55;4.28;;;2.78;;
40555;SDS011;26250;45.422;11.100;2024-02-23T02:52:22;2.67;;;2.47;;
40555;SDS011;26250;45.422;11.100;2024-02-23T02:54:50;3.33;;;2.60;;
40555;SDS011;26250;45.422;11.100;2024-02-23T02:57:17;5.47;;;2.53;;
40555;SDS011;26250;45.422;11.100;2024-02-23T02:59:44;3.47;;;2.65;;
40555;SDS011;26250;45.422;11.100;2024-02-23T03:02:12;3.17;;;2.70;;
40555;SDS011;26250;45.422;11.100;2024-02-23T03:04:39;4.13;;;3.15;;
40555;SDS011;26250;45.422;11.100;2024-02-23T03:07:12;3.08;;;2.78;;
40555;SDS011;26250;45.422;11.100;2024-02-23T03:09:39;3.42;;;2.97;;
40555;SDS011;26250;45.422;11.100;2024-02-23T03:12:06;3.40;;;3.00;;
40555;SDS011;26250;45.422;11.100;2024-02-23T03:14:33;3.33;;;2.70;;
40555;SDS011;26250;45.422;11.100;2024-02-23T03:17:04;3.95;;;3.03;;
40555;SDS011;26250;45.422;11.100;2024-02-23T03:19:31;3.50;;;3.05;;
40555;SDS011;26250;45.422;11.100;2024-02-23T03:21:59;5.80;;;3.35;;
40555;SDS011;26250;45.422;11.100;2024-02-23T03:24:26;4.45;;;3.92;;
40555;SDS011;26250;45.422;11.100;2024-02-23T03:26:53;3.75;;;3.17;;
40555;SDS011;26250;45.422;11.100;2024-02-23T03:29:20;4.82;;;3.67;;
40555;SDS011;26250;45.422;11.100;2024-02-23T03:31:50;5.22;;;3.70;;
40555;SDS011;26250;45.422;11.100;2024-02-23T03:34:19;10.15;;;4.20;;
40555;SDS011;26250;45.422;11.100;2024-02-23T03:36:46;6.30;;;4.50;;
40555;SDS011;26250;45.422;11.100;2024-02-23T03:39:13;11.10;;;4.47;;
40555;SDS011;26250;45.422;11.100;2024-02-23T03:41:40;5.55;;;4.55;;
40555;SDS011;26250;45.422;11.100;2024-02-23T03:44:07;6.55;;;4.80;;
40555;SDS011;26250;45.422;11.100;2024-02-23T03:46:34;7.45;;;5.15;;
40555;SDS011;26250;45.422;11.100;2024-02-23T03:49:02;9.30;;;5.60;;
40555;SDS011;26250;45.422;11.100;2024-02-23T03:51:29;5.38;;;4.57;;
40555;SDS011;26250;45.422;11.100;2024-02-23T03:53:55;7.78;;;4.40;;
40555;SDS011;26250;45.422;11.100;2024-02-23T03:56:23;6.45;;;5.07;;
40555;SDS011;26250;45.422;11.100;2024-02-23T03:58:50;6.55;;;4.70;;
40555;SDS011;26250;45.422;11.100;2024-02-23T04:01:17;12.15;;;6.22;;
40555;SDS011;26250;45.422;11.100;2024-02-23T04:03:44;6.07;;;5.30;;
40555;SDS011;26250;45.422;11.100;2024-02-23T04:06:11;7.28;;;5.65;;
40555;SDS011;26250;45.422;11.100;2024-02-23T04:08:38;6.75;;;5.63;;
40555;SDS011;26250;45.422;11.100;2024-02-23T04:11:07;8.50;;;5.45;;
40555;SDS011;26250;45.422;11.100;2024-02-23T04:13:34;8.10;;;4.80;;
40555;SDS011;26250;45.422;11.100;2024-02-23T04:16:01;6.63;;;5.25;;
40555;SDS011;26250;45.422;11.100;2024-02-23T04:18:28;11.45;;;4.95;;
40555;SDS011;26250;45.422;11.100;2024-02-23T04:20:55;10.05;;;5.28;;
40555;SDS011;26250;45.422;11.100;2024-02-23T04:23:22;10.38;;;5.65;;
40555;SDS011;26250;45.422;11.100;2024-02-23T04:25:49;7.50;;;5.03;;
40555;SDS011;26250;45.422;11.100;2024-02-23T04:28:17;8.90;;;4.78;;
40555;SDS011;26250;45.422;11.100;2024-02-23T04:30:44;6.90;;;4.95;;
40555;SDS011;26250;45.422;11.100;2024-02-23T04:33:11;5.22;;;4.50;;
40555;SDS011;26250;45.422;11.100;2024-02-23T04:35:38;9.27;;;4.47;;
40555;SDS011;26250;45.422;11.100;2024-02-23T04:38:05;12.57;;;5.07;;
40555;SDS011;26250;45.422;11.100;2024-02-23T04:40:31;5.10;;;4.32;;
40555;SDS011;26250;45.422;11.100;2024-02-23T04:42:58;9.07;;;5.40;;
40555;SDS011;26250;45.422;11.100;2024-02-23T04:45:25;5.68;;;4.55;;
40555;SDS011;26250;45.422;11.100;2024-02-23T04:47:52;8.85;;;5.43;;
40555;SDS011;26250;45.422;11.100;2024-02-23T04:50:19;6.55;;;5.03;;
40555;SDS011;26250;45.422;11.100;2024-02-23T04:52:46;8.50;;;5.07;;
40555;SDS011;26250;45.422;11.100;2024-02-23T04:55:13;6.90;;;4.35;;
40555;SDS011;26250;45.422;11.100;2024-02-23T04:57:40;7.45;;;5.03;;
40555;SDS011;26250;45.422;11.100;2024-02-23T05:00:07;6.68;;;4.45;;
40555;SDS011;26250;45.422;11.100;2024-02-23T05:02:34;9.98;;;4.65;;
40555;SDS011;26250;45.422;11.100;2024-02-23T05:05:02;6.60;;;4.25;;
40555;SDS011;26250;45.422;11.100;2024-02-23T05:07:31;8.40;;;5.15;;
40555;SDS011;26250;45.422;11.100;2024-02-23T05:09:58;5.03;;;4.45;;
40555;SDS011;26250;45.422;11.100;2024-02-23T05:12:27;9.52;;;5.15;;
40555;SDS011;26250;45.422;11.100;2024-02-23T05:14:54;6.43;;;4.65;;
40555;SDS011;26250;45.422;11.100;2024-02-23T05:17:24;5.80;;;4.43;;
40555;SDS011;26250;45.422;11.100;2024-02-23T05:19:51;5.30;;;4.63;;
40555;SDS011;26250;45.422;11.100;2024-02-23T05:22:18;14.48;;;5.32;;
40555;SDS011;26250;45.422;11.100;2024-02-23T05:24:45;10.63;;;4.80;;
40555;SDS011;26250;45.422;11.100;2024-02-23T05:27:12;9.98;;;5.55;;
40555;SDS011;26250;45.422;11.100;2024-02-23T05:29:39;7.15;;;5.00;;
40555;SDS011;26250;45.422;11.100;2024-02-23T05:32:06;8.35;;;5.00;;
40555;SDS011;26250;45.422;11.100;2024-02-23T05:34:33;4.78;;;4.30;;
40555;SDS011;26250;45.422;11.100;2024-02-23T05:37:02;7.13;;;4.50;;
40555;SDS011;26250;45.422;11.100;2024-02-23T05:39:28;7.35;;;4.90;;
40555;SDS011;26250;45.422;11.100;2024-02-23T05:41:55;14.27;;;4.68;;
40555;SDS011;26250;45.422;11.100;2024-02-23T05:44:23;6.45;;;5.10;;
40555;SDS011;26250;45.422;11.100;2024-02-23T05:46:50;6.68;;;4.78;;
40555;SDS011;26250;45.422;11.100;2024-02-23T05:49:17;6.22;;;4.40;;
40555;SDS011;26250;45.422;11.100;2024-02-23T05:51:45;5.95;;;4.85;;
40555;SDS011;26250;45.422;11.100;2024-02-23T05:54:11;6.45;;;4.78;;
40555;SDS011;26250;45.422;11.100;2024-02-23T05:56:38;5.40;;;4.90;;
40555;SDS011;26250;45.422;11.100;2024-02-23T05:59:05;10.68;;;5.50;;
40555;SDS011;26250;45.422;11.100;2024-02-23T06:01:33;8.40;;;5.78;;
40555;SDS011;26250;45.422;11.100;2024-02-23T06:03:59;17.63;;;6.88;;
40555;SDS011;26250;45.422;11.100;2024-02-23T06:06:26;6.65;;;4.82;;
40555;SDS011;26250;45.422;11.100;2024-02-23T06:08:53;9.40;;;5.65;;
40555;SDS011;26250;45.422;11.100;2024-02-23T06:11:20;8.25;;;5.88;;
40555;SDS011;26250;45.422;11.100;2024-02-23T06:13:47;10.15;;;5.97;;
40555;SDS011;26250;45.422;11.100;2024-02-23T06:16:14;14.90;;;5.70;;
40555;SDS011;26250;45.422;11.100;2024-02-23T06:18:42;9.40;;;5.75;;
40555;SDS011;26250;45.422;11.100;2024-02-23T06:21:15;7.90;;;5.68;;
40555;SDS011;26250;45.422;11.100;2024-02-23T06:23:44;12.23;;;5.72;;
40555;SDS011;26250;45.422;11.100;2024-02-23T06:26:11;11.77;;;6.07;;
40555;SDS011;26250;45.422;11.100;2024-02-23T06:28:39;10.00;;;5.82;;
40555;SDS011;26250;45.422;11.100;2024-02-23T06:31:08;15.30;;;6.80;;
40555;SDS011;26250;45.422;11.100;2024-02-23T06:33:36;10.95;;;6.32;;
40555;SDS011;26250;45.422;11.100;2024-02-23T06:36:03;9.02;;;6.22;;
40555;SDS011;26250;45.422;11.100;2024-02-23T06:38:30;13.05;;;6.30;;
40555;SDS011;26250;45.422;11.100;2024-02-23T06:40:58;11.40;;;6.65;;
40555;SDS011;26250;45.422;11.100;2024-02-23T06:43:25;12.95;;;6.18;;
40555;SDS011;26250;45.422;11.100;2024-02-23T06:45:52;16.35;;;6.97;;
40555;SDS011;26250;45.422;11.100;2024-02-23T06:48:19;18.05;;;6.75;;
40555;SDS011;26250;45.422;11.100;2024-02-23T06:50:46;8.10;;;6.85;;
40555;SDS011;26250;45.422;11.100;2024-02-23T06:53:13;20.35;;;7.90;;
40555;SDS011;26250;45.422;11.100;2024-02-23T06:55:40;12.10;;;6.97;;
40555;SDS011;26250;45.422;11.100;2024-02-23T06:58:08;13.15;;;7.53;;
40555;SDS011;26250;45.422;11.100;2024-02-23T07:00:36;15.55;;;8.18;;
40555;SDS011;26250;45.422;11.100;2024-02-23T07:03:03;28.92;;;8.07;;
40555;SDS011;26250;45.422;11.100;2024-02-23T07:05:30;13.23;;;7.93;;
40555;SDS011;26250;45.422;11.100;2024-02-23T07:07:58;19.10;;;8.10;;
40555;SDS011;26250;45.422;11.100;2024-02-23T07:10:25;9.65;;;7.32;;
40555;SDS011;26250;45.422;11.100;2024-02-23T07:12:53;16.48;;;8.10;;
40555;SDS011;26250;45.422;11.100;2024-02-23T07:15:20;16.17;;;6.78;;
40555;SDS011;26250;45.422;11.100;2024-02-23T07:17:47;15.98;;;7.75;;
40555;SDS011;26250;45.422;11.100;2024-02-23T07:20:15;15.90;;;9.57;;
40555;SDS011;26250;45.422;11.100;2024-02-23T07:22:45;16.73;;;9.35;;
40555;SDS011;26250;45.422;11.100;2024-02-23T07:25:16;19.70;;;10.18;;
40555;SDS011;26250;45.422;11.100;2024-02-23T07:27:47;14.10;;;7.30;;
40555;SDS011;26250;45.422;11.100;2024-02-23T07:30:15;16.27;;;7.78;;
40555;SDS011;26250;45.422;11.100;2024-02-23T07:32:45;9.52;;;6.45;;
40555;SDS011;26250;45.422;11.100;2024-02-23T07:37:45;11.85;;;7.28;;
40555;SDS011;26250;45.422;11.100;2024-02-23T07:40:13;12.50;;;6.47;;
40555;SDS011;26250;45.422;11.100;2024-02-23T07:42:43;11.70;;;7.68;;
40555;SDS011;26250;45.422;11.100;2024-02-23T07:45:10;16.13;;;7.72;;
40555;SDS011;26250;45.422;11.100;2024-02-23T07:47:37;10.88;;;7.15;;
40555;SDS011;26250;45.422;11.100;2024-02-23T07:50:05;13.95;;;6.70;;
40555;SDS011;26250;45.422;11.100;2024-02-23T07:52:32;12.75;;;6.10;;
40555;SDS011;26250;45.422;11.100;2024-02-23T07:54:59;22.17;;;7.38;;
40555;SDS011;26250;45.422;11.100;2024-02-23T07:57:29;17.17;;;10.00;;
40555;SDS011;26250;45.422;11.100;2024-02-23T07:59:57;12.48;;;7.32;;
40555;SDS011;26250;45.422;11.100;2024-02-23T08:02:24;11.13;;;6.88;;
40555;SDS011;26250;45.422;11.100;2024-02-23T08:04:51;48.50;;;8.57;;
40555;SDS011;26250;45.422;11.100;2024-02-23T08:07:19;15.10;;;7.38;;
40555;SDS011;26250;45.422;11.100;2024-02-23T08:09:46;12.07;;;6.57;;
40555;SDS011;26250;45.422;11.100;2024-02-23T08:12:13;14.07;;;6.97;;
40555;SDS011;26250;45.422;11.100;2024-02-23T08:14:40;12.38;;;7.90;;
40555;SDS011;26250;45.422;11.100;2024-02-23T08:17:10;11.07;;;7.05;;
40555;SDS011;26250;45.422;11.100;2024-02-23T08:19:37;15.10;;;7.75;;
40555;SDS011;26250;45.422;11.100;2024-02-23T08:22:04;13.07;;;7.75;;
40555;SDS011;26250;45.422;11.100;2024-02-23T08:24:31;14.35;;;8.05;;
40555;SDS011;26250;45.422;11.100;2024-02-23T08:26:58;13.63;;;7.43;;
40555;SDS011;26250;45.422;11.100;2024-02-23T08:29:25;18.45;;;8.65;;
40555;SDS011;26250;45.422;11.100;2024-02-23T08:31:53;13.57;;;7.88;;
40555;SDS011;26250;45.422;11.100;2024-02-23T08:34:20;12.25;;;7.18;;
40555;SDS011;26250;45.422;11.100;2024-02-23T08:36:47;13.43;;;7.05;;
40555;SDS011;26250;45.422;11.100;2024-02-23T08:39:14;13.10;;;6.78;;
40555;SDS011;26250;45.422;11.100;2024-02-23T08:41:41;9.52;;;5.63;;
40555;SDS011;26250;45.422;11.100;2024-02-23T08:44:08;10.68;;;6.53;;
40555;SDS011;26250;45.422;11.100;2024-02-23T08:46:35;8.50;;;5.63;;
40555;SDS011;26250;45.422;11.100;2024-02-23T08:49:03;14.30;;;10.00;;
40555;SDS011;26250;45.422;11.100;2024-02-23T08:51:30;16.00;;;6.63;;
40555;SDS011;26250;45.422;11.100;2024-02-23T08:53:57;12.43;;;6.53;;
40555;SDS011;26250;45.422;11.100;2024-02-23T08:56:29;11.18;;;6.13;;
40555;SDS011;26250;45.422;11.100;2024-02-23T08:58:57;8.55;;;5.68;;
40555;SDS011;26250;45.422;11.100;2024-02-23T09:01:24;7.00;;;6.25;;
40555;SDS011;26250;45.422;11.100;2024-02-23T09:03:51;8.68;;;6.18;;
40555;SDS011;26250;45.422;11.100;2024-02-23T09:06:18;11.65;;;6.85;;
40555;SDS011;26250;45.422;11.100;2024-02-23T09:08:46;11.18;;;7.32;;
40555;SDS011;26250;45.422;11.100;2024-02-23T09:11:13;9.07;;;6.20;;
40555;SDS011;26250;45.422;11.100;2024-02-23T09:13:41;11.32;;;6.32;;
40555;SDS011;26250;45.422;11.100;2024-02-23T09:16:09;8.32;;;5.15;;
40555;SDS011;26250;45.422;11.100;2024-02-23T09:18:35;11.25;;;7.10;;
40555;SDS011;26250;45.422;11.100;2024-02-23T09:21:03;13.00;;;8.25;;
40555;SDS011;26250;45.422;11.100;2024-02-23T09:23:30;12.93;;;7.32;;
40555;SDS011;26250;45.422;11.100;2024-02-23T09:25:57;8.30;;;5.93;;
40555;SDS011;26250;45.422;11.100;2024-02-23T09:28:24;11.07;;;5.93;;
40555;SDS011;26250;45.422;11.100;2024-02-23T09:30:51;16.58;;;5.90;;
40555;SDS011;26250;45.422;11.100;2024-02-23T09:33:20;10.48;;;5.90;;
40555;SDS011;26250;45.422;11.100;2024-02-23T09:35:47;7.53;;;4.78;;
40555;SDS011;26250;45.422;11.100;2024-02-23T09:38:14;10.18;;;5.25;;
40555;SDS011;26250;45.422;11.100;2024-02-23T09:40:41;13.20;;;6.53;;
40555;SDS011;26250;45.422;11.100;2024-02-23T09:43:08;9.80;;;5.82;;
40555;SDS011;26250;45.422;11.100;2024-02-23T09:45:38;11.32;;;6.43;;
40555;SDS011;26250;45.422;11.100;2024-02-23T09:48:05;9.65;;;6.47;;
40555;SDS011;26250;45.422;11.100;2024-02-23T09:50:34;17.20;;;7.03;;
40555;SDS011;26250;45.422;11.100;2024-02-23T09:53:01;16.02;;;6.38;;
40555;SDS011;26250;45.422;11.100;2024-02-23T09:55:31;14.27;;;7.05;;
40555;SDS011;26250;45.422;11.100;2024-02-23T09:57:58;7.80;;;6.57;;
40555;SDS011;26250;45.422;11.100;2024-02-23T10:00:26;14.07;;;8.13;;
40555;SDS011;26250;45.422;11.100;2024-02-23T10:02:54;9.18;;;6.85;;
40555;SDS011;26250;45.422;11.100;2024-02-23T10:05:30;16.00;;;7.65;;
40555;SDS011;26250;45.422;11.100;2024-02-23T10:08:06;10.65;;;6.57;;
40555;SDS011;26250;45.422;11.100;2024-02-23T10:10:33;14.57;;;7.25;;
40555;SDS011;26250;45.422;11.100;2024-02-23T10:13:02;11.13;;;6.78;;
40555;SDS011;26250;45.422;11.100;2024-02-23T10:15:32;14.18;;;7.55;;
40555;SDS011;26250;45.422;11.100;2024-02-23T10:17:59;10.07;;;6.65;;
40555;SDS011;26250;45.422;11.100;2024-02-23T10:20:26;15.48;;;6.80;;
40555;SDS011;26250;45.422;11.100;2024-02-23T10:22:54;11.20;;;7.25;;
40555;SDS011;26250;45.422;11.100;2024-02-23T10:25:21;12.18;;;7.38;;
40555;SDS011;26250;45.422;11.100;2024-02-23T10:27:48;10.32;;;6.75;;
40555;SDS011;26250;45.422;11.100;2024-02-23T10:30:15;15.45;;;7.10;;
40555;SDS011;26250;45.422;11.100;2024-02-23T10:32:42;12.65;;;8.05;;
40555;SDS011;26250;45.422;11.100;2024-02-23T10:35:14;15.95;;;7.05;;
40555;SDS011;26250;45.422;11.100;2024-02-23T10:37:43;11.88;;;7.88;;
40555;SDS011;26250;45.422;11.100;2024-02-23T10:40:14;9.77;;;7.20;;
40555;SDS011;26250;45.422;11.100;2024-02-23T10:42:43;10.05;;;8.02;;
40555;SDS011;26250;45.422;11.100;2024-02-23T10:45:18;10.45;;;6.72;;
40555;SDS011;26250;45.422;11.100;2024-02-23T10:47:45;9.70;;;6.80;;
40555;SDS011;26250;45.422;11.100;2024-02-23T10:50:14;14.57;;;7.68;;
40555;SDS011;26250;45.422;11.100;2024-02-23T10:52:42;11.20;;;6.07;;
40555;SDS011;26250;45.422;11.100;2024-02-23T10:55:09;12.98;;;7.63;;
40555;SDS011;26250;45.422;11.100;2024-02-23T10:57:37;11.43;;;7.22;;
40555;SDS011;26250;45.422;11.100;2024-02-23T11:00:07;9.60;;;7.15;;
40555;SDS011;26250;45.422;11.100;2024-02-23T11:02:43;11.50;;;8.10;;
40555;SDS011;26250;45.422;11.100;2024-02-23T11:05:15;12.10;;;6.80;;
40555;SDS011;26250;45.422;11.100;2024-02-23T11:07:45;9.88;;;6.50;;
40555;SDS011;26250;45.422;11.100;2024-02-23T11:10:15;10.30;;;6.90;;
40555;SDS011;26250;45.422;11.100;2024-02-23T11:12:43;8.82;;;6.63;;
40555;SDS011;26250;45.422;11.100;2024-02-23T11:15:16;9.07;;;7.05;;
40555;SDS011;26250;45.422;11.100;2024-02-23T11:17:55;11.65;;;6.20;;
40555;SDS011;26250;45.422;11.100;2024-02-23T11:20:23;9.07;;;6.47;;
40555;SDS011;26250;45.422;11.100;2024-02-23T11:22:56;10.98;;;7.25;;
40555;SDS011;26250;45.422;11.100;2024-02-23T11:25:28;9.63;;;7.18;;
40555;SDS011;26250;45.422;11.100;2024-02-23T11:27:56;7.90;;;6.88;;
40555;SDS011;26250;45.422;11.100;2024-02-23T11:30:22;6.82;;;5.97;;
40555;SDS011;26250;45.422;11.100;2024-02-23T11:32:52;8.23;;;6.90;;
40555;SDS011;26250;45.422;11.100;2024-02-23T11:35:26;10.35;;;6.40;;
40555;SDS011;26250;45.422;11.100;2024-02-23T11:37:57;12.90;;;7.38;;
40555;SDS011;26250;45.422;11.100;2024-02-23T11:40:28;9.55;;;6.30;;
40555;SDS011;26250;45.422;11.100;2024-02-23T11:42:57;12.07;;;6.55;;
40555;SDS011;26250;45.422;11.100;2024-02-23T11:45:29;7.80;;;6.95;;
40555;SDS011;26250;45.422;11.100;2024-02-23T11:47:58;7.97;;;6.90;;
40555;SDS011;26250;45.422;11.100;2024-02-23T11:50:26;9.18;;;6.82;;
40555;SDS011;26250;45.422;11.100;2024-02-23T11:52:53;9.77;;;6.32;;
40555;SDS011;26250;45.422;11.100;2024-02-23T11:55:20;9.30;;;7.05;;
40555;SDS011;26250;45.422;11.100;2024-02-23T11:57:49;16.30;;;6.10;;
40555;SDS011;26250;45.422;11.100;2024-02-23T12:00:30;7.28;;;5.93;;
40555;SDS011;26250;45.422;11.100;2024-02-23T12:02:57;9.43;;;7.03;;
40555;SDS011;26250;45.422;11.100;2024-02-23T12:05:25;8.48;;;5.75;;
40555;SDS011;26250;45.422;11.100;2024-02-23T12:07:53;10.00;;;6.72;;
40555;SDS011;26250;45.422;11.100;2024-02-23T12:10:21;8.45;;;5.45;;
40555;SDS011;26250;45.422;11.100;2024-02-23T12:12:48;11.30;;;6.38;;
40555;SDS011;26250;45.422;11.100;2024-02-23T12:15:16;8.10;;;5.80;;
40555;SDS011;26250;45.422;11.100;2024-02-23T12:17:47;5.38;;;4.85;;
40555;SDS011;26250;45.422;11.100;2024-02-23T12:20:14;5.55;;;4.65;;
40555;SDS011;26250;45.422;11.100;2024-02-23T12:22:42;5.93;;;5.05;;
40555;SDS011;26250;45.422;11.100;2024-02-23T12:25:09;5.90;;;4.90;;
40555;SDS011;26250;45.422;11.100;2024-02-23T12:27:39;9.15;;;5.15;;
40555;SDS011;26250;45.422;11.100;2024-02-23T12:30:12;7.70;;;6.38;;
40555;SDS011;26250;45.422;11.100;2024-02-23T12:32:41;6.95;;;6.20;;
40555;SDS011;26250;45.422;11.100;2024-02-23T12:35:10;8.45;;;6.90;;
40555;SDS011;26250;45.422;11.100;2024-02-23T12:37:38;9.25;;;6.22;;
40555;SDS011;26250;45.422;11.100;2024-02-23T12:40:10;11.23;;;7.00;;
40555;SDS011;26250;45.422;11.100;2024-02-23T12:42:37;10.55;;;5.57;;
40555;SDS011;26250;45.422;11.100;2024-02-23T12:45:04;7.25;;;5.32;;
40555;SDS011;26250;45.422;11.100;2024-02-23T12:47:31;6.28;;;5.10;;
40555;SDS011;26250;45.422;11.100;2024-02-23T12:49:58;11.45;;;4.82;;
40555;SDS011;26250;45.422;11.100;2024-02-23T12:52:25;10.02;;;5.40;;
40555;SDS011;26250;45.422;11.100;2024-02-23T12:54:53;12.15;;;6.13;;
40555;SDS011;26250;45.422;11.100;2024-02-23T12:57:20;12.65;;;5.90;;
40555;SDS011;26250;45.422;11.100;2024-02-23T12:59:47;8.75;;;5.47;;
40555;SDS011;26250;45.422;11.100;2024-02-23T13:02:19;9.52;;;5.65;;
40555;SDS011;26250;45.422;11.100;2024-02-23T13:04:47;8.57;;;5.50;;
40555;SDS011;26250;45.422;11.100;2024-02-23T13:07:16;6.05;;;5.22;;
40555;SDS011;26250;45.422;11.100;2024-02-23T13:09:44;10.90;;;6.00;;
40555;SDS011;26250;45.422;11.100;2024-02-23T13:12:11;7.68;;;4.95;;
40555;SDS011;26250;45.422;11.100;2024-02-23T13:14:38;6.38;;;5.43;;
40555;SDS011;26250;45.422;11.100;2024-02-23T13:17:05;13.52;;;6.55;;
40555;SDS011;26250;45.422;11.100;2024-02-23T13:19:32;6.40;;;5.45;;
40555;SDS011;26250;45.422;11.100;2024-02-23T13:21:59;10.38;;;6.65;;
40555;SDS011;26250;45.422;11.100;2024-02-23T13:24:29;13.35;;;7.00;;
40555;SDS011;26250;45.422;11.100;2024-02-23T13:26:56;12.70;;;6.72;;
40555;SDS011;26250;45.422;11.100;2024-02-23T13:29:22;11.38;;;5.72;;
40555;SDS011;26250;45.422;11.100;2024-02-23T13:31:49;9.70;;;6.13;;
40555;SDS011;26250;45.422;11.100;2024-02-23T13:34:16;10.05;;;6.50;;
40555;SDS011;26250;45.422;11.100;2024-02-23T13:36:44;11.32;;;6.53;;
40555;SDS011;26250;45.422;11.100;2024-02-23T13:39:11;14.75;;;8.95;;
40555;SDS011;26250;45.422;11.100;2024-02-23T13:41:39;27.13;;;14.68;;
40555;SDS011;26250;45.422;11.100;2024-02-23T13:44:06;19.58;;;12.55;;
40555;SDS011;26250;45.422;11.100;2024-02-23T13:46:38;13.07;;;8.70;;
40555;SDS011;26250;45.422;11.100;2024-02-23T13:49:06;12.65;;;9.05;;
40555;SDS011;26250;45.422;11.100;2024-02-23T13:51:34;35.30;;;19.38;;
40555;SDS011;26250;45.422;11.100;2024-02-23T13:54:01;26.35;;;14.45;;
40555;SDS011;26250;45.422;11.100;2024-02-23T13:56:29;13.75;;;11.80;;
40555;SDS011;26250;45.422;11.100;2024-02-23T13:58:56;10.27;;;7.85;;
40555;SDS011;26250;45.422;11.100;2024-02-23T14:01:23;17.33;;;11.77;;
40555;SDS011;26250;45.422;11.100;2024-02-23T14:03:51;13.77;;;7.40;;
40555;SDS011;26250;45.422;11.100;2024-02-23T14:06:18;11.13;;;7.55;;
40555;SDS011;26250;45.422;11.100;2024-02-23T14:08:45;11.32;;;8.10;;
40555;SDS011;26250;45.422;11.100;2024-02-23T14:11:13;11.63;;;8.05;;
40555;SDS011;26250;45.422;11.100;2024-02-23T14:13:40;13.20;;;7.90;;
40555;SDS011;26250;45.422;11.100;2024-02-23T14:16:07;12.20;;;8.02;;
40555;SDS011;26250;45.422;11.100;2024-02-23T14:18:34;10.10;;;8.85;;
40555;SDS011;26250;45.422;11.100;2024-02-23T14:21:04;11.13;;;10.02;;
40555;SDS011;26250;45.422;11.100;2024-02-23T14:23:31;12.90;;;10.68;;
40555;SDS011;26250;45.422;11.100;2024-02-23T14:25:58;12.75;;;9.90;;
40555;SDS011;26250;45.422;11.100;2024-02-23T14:28:25;12.32;;;9.32;;
40555;SDS011;26250;45.422;11.100;2024-02-23T14:30:52;10.35;;;8.95;;
40555;SDS011;26250;45.422;11.100;2024-02-23T14:33:20;16.08;;;10.18;;
40555;SDS011;26250;45.422;11.100;2024-02-23T14:35:47;9.80;;;8.80;;
40555;SDS011;26250;45.422;11.100;2024-02-23T14:38:16;11.18;;;9.48;;